Time;durP1;ratioP1;P1;durP2;ratioP2;P2;SDS_P1;SDS_P2;PMS_P1;PMS_P2;Temp;Humidity;BMP_temperature;BMP_pressure;BME280_temperature;BME280_humidity;BME280_pressure;Samples;Min_cycle;Max_cycle;Signal;HPM_P1;HPM_P2
2023/01/25 00:02:16;;;;;;;24.85;11.70;;;;;;;;;;5012810;28;20049;-81
2023/01/25 00:04:44;;;;;;;20.60;11.50;;;;;;;;;;5012620;28;20042;-81
2023/01/25 00:07:11;;;;;;;22.33;11.77;;;;;;;;;;5012682;28;20049;-82
2023/01/25 00:09:38;;;;;;;26.13;12.80;;;;;;;;;;5012751;28;20052;-83
2023/01/25 00:12:05;;;;;;;23.45;12.75;;;;;;;;;;5012829;28;20046;-82
2023/01/25 00:14:32;;;;;;;24.75;13.65;;;;;;;;;;5012606;28;20053;-82
2023/01/25 00:16:59;;;;;;;25.60;12.73;;;;;;;;;;5013503;28;20056;-82
2023/01/25 00:19:27;;;;;;;26.23;12.93;;;;;;;;;;5012271;28;20132;-82
2023/01/25 00:21:54;;;;;;;21.05;12.02;;;;;;;;;;5012460;28;20054;-82
2023/01/25 00:24:21;;;;;;;23.52;11.68;;;;;;;;;;5012404;28;20042;-82
2023/01/25 00:26:49;;;;;;;22.70;12.68;;;;;;;;;;5013749;28;20568;-82
2023/01/25 00:29:16;;;;;;;19.75;11.38;;;;;;;;;;5012499;28;20052;-82
2023/01/25 00:31:59;;;;;;;25.02;11.98;;;;;;;;;;5012427;28;20050;-82
2023/01/25 00:34:27;;;;;;;20.15;11.15;;;;;;;;;;5012054;28;20111;-82
2023/01/25 00:36:56;;;;;;;21.83;11.25;;;;;;;;;;5013414;28;20058;-82
2023/01/25 00:39:24;;;;;;;22.27;11.55;;;;;;;;;;5012046;28;20513;-82
2023/01/25 00:41:51;;;;;;;22.67;11.00;;;;;;;;;;5013125;28;20548;-82
2023/01/25 00:44:19;;;;;;;19.60;11.07;;;;;;;;;;5011933;28;20046;-82
2023/01/25 00:46:46;;;;;;;19.85;11.48;;;;;;;;;;5012415;28;20125;-82
2023/01/25 00:49:20;;;;;;;22.30;11.73;;;;;;;;;;5012029;28;20088;-82
2023/01/25 00:51:47;;;;;;;23.50;11.40;;;;;;;;;;5012206;28;20463;-82
2023/01/25 00:54:15;;;;;;;21.25;11.73;;;;;;;;;;5011790;28;20116;-82
2023/01/25 00:56:42;;;;;;;22.20;12.13;;;;;;;;;;5011756;28;20137;-82
2023/01/25 00:59:09;;;;;;;23.05;12.05;;;;;;;;;;5012697;28;20140;-82
2023/01/25 01:01:37;;;;;;;22.85;11.30;;;;;;;;;;5011694;28;20046;-82
2023/01/25 01:04:04;;;;;;;20.95;10.73;;;;;;;;;;5011964;28;20050;-82
2023/01/25 01:06:35;;;;;;;22.27;11.32;;;;;;;;;;5011623;28;20050;-82
2023/01/25 01:09:02;;;;;;;20.38;10.43;;;;;;;;;;5011775;28;20485;-81
2023/01/25 01:11:30;;;;;;;20.50;11.02;;;;;;;;;;5011570;28;20501;-81
2023/01/25 01:13:58;;;;;;;23.40;12.48;;;;;;;;;;5011620;28;20089;-82
2023/01/25 01:16:25;;;;;;;22.85;12.15;;;;;;;;;;5011346;28;20133;-81
2023/01/25 01:18:53;;;;;;;20.95;11.43;;;;;;;;;;5011511;28;20065;-82
2023/01/25 01:21:20;;;;;;;23.30;11.30;;;;;;;;;;5011447;28;20132;-82
2023/01/25 01:23:47;;;;;;;22.65;11.43;;;;;;;;;;5012606;28;20138;-82
2023/01/25 01:26:15;;;;;;;20.67;11.05;;;;;;;;;;5011201;28;20045;-82
2023/01/25 01:28:43;;;;;;;23.45;11.65;;;;;;;;;;5011576;28;20085;-82
2023/01/25 01:31:11;;;;;;;23.25;12.05;;;;;;;;;;5011631;28;20078;-82
2023/01/25 01:33:38;;;;;;;23.40;12.27;;;;;;;;;;5012646;28;20050;-82
2023/01/25 01:36:06;;;;;;;23.90;12.27;;;;;;;;;;5011513;28;20057;-82
2023/01/25 01:38:33;;;;;;;20.75;12.27;;;;;;;;;;5011325;28;20054;-80
2023/01/25 01:41:00;;;;;;;24.08;12.57;;;;;;;;;;5011121;28;20042;-82
2023/01/25 01:43:29;;;;;;;22.17;11.88;;;;;;;;;;5011287;28;20050;-82
2023/01/25 01:45:59;;;;;;;24.25;12.35;;;;;;;;;;5011414;28;20132;-82
2023/01/25 01:48:44;;;;;;;24.75;12.23;;;;;;;;;;5012403;28;20042;-81
2023/01/25 01:51:28;;;;;;;24.83;12.48;;;;;;;;;;5011397;28;20086;-81
2023/01/25 01:54:07;;;;;;;22.77;11.20;;;;;;;;;;5012178;28;20054;-82
2023/01/25 01:56:38;;;;;;;26.52;12.00;;;;;;;;;;5011456;28;20057;-82
2023/01/25 01:59:06;;;;;;;23.45;11.57;;;;;;;;;;5012291;28;20085;-81
2023/01/25 02:01:34;;;;;;;20.10;10.77;;;;;;;;;;5010782;28;20500;-81
2023/01/25 02:04:02;;;;;;;21.27;11.23;;;;;;;;;;5012342;28;20050;-82
2023/01/25 02:06:34;;;;;;;22.73;11.32;;;;;;;;;;5011017;28;20564;-81
2023/01/25 02:09:01;;;;;;;22.27;11.45;;;;;;;;;;5012201;28;20425;-82
2023/01/25 02:11:28;;;;;;;21.90;11.88;;;;;;;;;;5011059;28;20060;-81
2023/01/25 02:13:57;;;;;;;23.23;11.07;;;;;;;;;;5011189;28;20070;-81
2023/01/25 02:16:26;;;;;;;23.73;11.93;;;;;;;;;;5010786;28;20046;-82
2023/01/25 02:18:55;;;;;;;22.08;11.15;;;;;;;;;;5011075;28;20057;-82
2023/01/25 02:21:23;;;;;;;19.30;10.80;;;;;;;;;;5011120;28;20053;-82
2023/01/25 02:23:58;;;;;;;20.63;10.38;;;;;;;;;;5011529;28;20412;-82
2023/01/25 02:26:25;;;;;;;21.23;10.75;;;;;;;;;;5014352;28;20046;-81
2023/01/25 02:28:58;;;;;;;24.20;11.20;;;;;;;;;;5014546;28;20080;-82
2023/01/25 02:31:25;;;;;;;21.45;11.27;;;;;;;;;;5014536;28;20401;-81
2023/01/25 02:33:53;;;;;;;22.60;10.75;;;;;;;;;;5015799;28;20081;-82
2023/01/25 02:36:23;;;;;;;22.58;11.80;;;;;;;;;;5014273;28;20076;-82
2023/01/25 02:38:59;;;;;;;26.88;13.10;;;;;;;;;;5016445;28;20512;-82
2023/01/25 02:41:36;;;;;;;20.58;11.63;;;;;;;;;;5014832;28;20049;-82
2023/01/25 02:44:18;;;;;;;21.40;11.80;;;;;;;;;;5014824;28;20046;-83
2023/01/25 02:46:46;;;;;;;21.83;11.57;;;;;;;;;;5014571;28;20097;-82
2023/01/25 02:49:14;;;;;;;19.30;10.07;;;;;;;;;;5014453;28;20092;-80
2023/01/25 02:51:43;;;;;;;22.75;10.93;;;;;;;;;;5014489;28;20056;-82
2023/01/25 02:54:11;;;;;;;21.08;10.73;;;;;;;;;;5065683;22;20049;-80
2023/01/25 02:56:39;;;;;;;19.75;10.43;;;;;;;;;;5055614;28;20488;-80
2023/01/25 02:59:07;;;;;;;17.48;9.20;;;;;;;;;;5055643;28;20072;-81
2023/01/25 03:01:35;;;;;;;18.52;10.07;;;;;;;;;;5055310;28;20051;-80
2023/01/25 03:04:02;;;;;;;18.25;9.20;;;;;;;;;;5055369;28;20124;-81
2023/01/25 03:06:30;;;;;;;19.33;10.43;;;;;;;;;;5041804;28;20054;-81
2023/01/25 03:08:57;;;;;;;18.15;10.18;;;;;;;;;;5043317;28;20045;-81
2023/01/25 03:11:24;;;;;;;18.70;10.70;;;;;;;;;;5041772;28;20114;-81
2023/01/25 03:13:52;;;;;;;20.15;10.07;;;;;;;;;;5041461;28;20148;-81
2023/01/25 03:16:19;;;;;;;18.13;9.52;;;;;;;;;;5040993;28;20080;-80
2023/01/25 03:18:46;;;;;;;15.30;8.75;;;;;;;;;;5041340;28;20050;-80
2023/01/25 03:21:15;;;;;;;17.70;9.70;;;;;;;;;;5040287;28;20041;-81
2023/01/25 03:23:42;;;;;;;18.63;9.48;;;;;;;;;;5040128;28;20141;-81
2023/01/25 03:26:10;;;;;;;18.65;9.93;;;;;;;;;;5040760;28;20046;-81
2023/01/25 03:28:38;;;;;;;17.73;9.50;;;;;;;;;;5041508;28;20527;-81
2023/01/25 03:31:05;;;;;;;17.65;10.15;;;;;;;;;;5039575;28;20084;-81
2023/01/25 03:33:33;;;;;;;16.63;9.57;;;;;;;;;;5039851;28;20104;-81
2023/01/25 03:36:00;;;;;;;19.00;9.60;;;;;;;;;;5039571;28;20427;-81
2023/01/25 03:38:28;;;;;;;19.02;9.27;;;;;;;;;;5040579;28;20049;-81
2023/01/25 03:40:55;;;;;;;18.13;9.98;;;;;;;;;;5039107;28;20135;-81
2023/01/25 03:43:22;;;;;;;18.95;11.18;;;;;;;;;;5038303;28;20049;-80
2023/01/25 03:45:53;;;;;;;20.48;11.60;;;;;;;;;;5038703;28;20076;-80
2023/01/25 03:48:21;;;;;;;22.17;11.25;;;;;;;;;;5038211;28;20073;-81
2023/01/25 03:50:53;;;;;;;19.90;10.32;;;;;;;;;;5038581;28;20442;-80
2023/01/25 03:53:28;;;;;;;22.45;10.40;;;;;;;;;;5037570;28;20060;-80
2023/01/25 03:55:57;;;;;;;15.20;9.15;;;;;;;;;;5037809;28;20069;-80
2023/01/25 03:58:24;;;;;;;23.13;11.45;;;;;;;;;;5038753;28;20476;-80
2023/01/25 04:00:53;;;;;;;19.23;10.45;;;;;;;;;;5037854;28;20148;-80
2023/01/25 04:03:21;;;;;;;16.98;9.20;;;;;;;;;;5039432;28;20053;-80
2023/01/25 04:05:48;;;;;;;15.82;9.07;;;;;;;;;;5039668;28;20049;-80
2023/01/25 04:08:16;;;;;;;19.52;9.50;;;;;;;;;;5038087;28;20049;-80
2023/01/25 04:10:43;;;;;;;20.95;10.15;;;;;;;;;;5038800;28;20568;-80
2023/01/25 04:13:10;;;;;;;16.27;9.00;;;;;;;;;;5038158;28;20077;-80
2023/01/25 04:15:37;;;;;;;21.38;10.15;;;;;;;;;;5037102;28;20146;-80
2023/01/25 04:18:04;;;;;;;17.45;9.65;;;;;;;;;;5037956;28;20060;-80
2023/01/25 04:20:33;;;;;;;15.90;9.40;;;;;;;;;;5036784;28;20046;-80
2023/01/25 04:23:00;;;;;;;16.10;9.23;;;;;;;;;;5037390;28;20405;-80
2023/01/25 04:25:27;;;;;;;20.38;9.30;;;;;;;;;;5036990;28;20069;-80
2023/01/25 04:27:54;;;;;;;18.38;9.43;;;;;;;;;;5036649;28;20419;-80
2023/01/25 04:30:22;;;;;;;16.80;9.50;;;;;;;;;;5037700;28;20045;-80
2023/01/25 04:32:50;;;;;;;21.15;10.70;;;;;;;;;;5036383;28;20419;-81
2023/01/25 04:35:19;;;;;;;20.52;9.55;;;;;;;;;;5036214;28;20075;-80
2023/01/25 04:37:56;;;;;;;20.48;10.75;;;;;;;;;;5036608;28;20053;-80
2023/01/25 04:40:23;;;;;;;24.55;9.90;;;;;;;;;;5036093;28;20099;-80
2023/01/25 04:42:50;;;;;;;24.10;10.93;;;;;;;;;;5039877;28;20064;-81
2023/01/25 04:45:17;;;;;;;20.52;10.70;;;;;;;;;;5041214;28;20046;-80
2023/01/25 04:47:44;;;;;;;18.83;9.30;;;;;;;;;;5039858;28;20228;-81
2023/01/25 04:50:12;;;;;;;20.55;9.50;;;;;;;;;;5040017;28;20079;-81
2023/01/25 04:52:39;;;;;;;18.45;10.00;;;;;;;;;;5038536;28;20088;-81
2023/01/25 04:55:06;;;;;;;20.30;9.95;;;;;;;;;;5040242;28;20072;-81
2023/01/25 04:57:34;;;;;;;16.23;9.52;;;;;;;;;;5038648;28;20057;-81
2023/01/25 05:00:01;;;;;;;18.33;10.35;;;;;;;;;;5038135;28;20045;-81
2023/01/25 05:02:28;;;;;;;19.27;10.05;;;;;;;;;;5036831;28;20111;-80
2023/01/25 05:04:56;;;;;;;19.10;9.80;;;;;;;;;;5037779;28;20063;-81
2023/01/25 05:07:23;;;;;;;19.08;10.48;;;;;;;;;;5038261;28;20515;-80
2023/01/25 05:09:50;;;;;;;21.65;10.57;;;;;;;;;;5038926;28;20054;-81
2023/01/25 05:12:17;;;;;;;18.40;9.82;;;;;;;;;;5036683;28;20077;-80
2023/01/25 05:14:44;;;;;;;20.67;10.57;;;;;;;;;;5037886;28;20059;-81
2023/01/25 05:17:11;;;;;;;20.73;11.13;;;;;;;;;;5036278;28;20128;-80
2023/01/25 05:19:39;;;;;;;19.20;10.32;;;;;;;;;;5036757;28;20088;-81
2023/01/25 05:22:06;;;;;;;16.95;10.60;;;;;;;;;;5036284;28;20055;-81
2023/01/25 05:24:35;;;;;;;18.65;10.20;;;;;;;;;;5035795;28;20050;-81
2023/01/25 05:27:02;;;;;;;18.77;10.48;;;;;;;;;;5036266;28;20111;-81
2023/01/25 05:29:31;;;;;;;18.75;9.88;;;;;;;;;;5035817;28;20428;-81
2023/01/25 05:31:58;;;;;;;17.65;10.52;;;;;;;;;;5036074;28;20049;-81
2023/01/25 05:34:26;;;;;;;17.75;8.90;;;;;;;;;;5035493;28;20056;-81
2023/01/25 05:36:53;;;;;;;19.27;9.18;;;;;;;;;;5036005;28;20084;-81
2023/01/25 05:39:20;;;;;;;19.33;9.25;;;;;;;;;;5037228;28;20046;-81
2023/01/25 05:41:47;;;;;;;36.75;10.43;;;;;;;;;;5035506;28;20526;-81
2023/01/25 05:44:15;;;;;;;13.40;7.35;;;;;;;;;;5035023;28;20045;-81
2023/01/25 05:46:42;;;;;;;14.45;8.13;;;;;;;;;;5035356;28;20049;-80
2023/01/25 05:49:09;;;;;;;12.48;7.38;;;;;;;;;;5035558;28;20049;-81
2023/01/25 05:51:37;;;;;;;12.57;7.68;;;;;;;;;;5035805;28;20091;-81
2023/01/25 05:54:05;;;;;;;12.68;7.40;;;;;;;;;;5035576;28;20049;-81
2023/01/25 05:56:32;;;;;;;17.92;9.88;;;;;;;;;;5036214;28;20528;-80
2023/01/25 05:59:00;;;;;;;18.08;10.32;;;;;;;;;;5036557;28;20151;-80
2023/01/25 06:01:28;;;;;;;22.75;11.75;;;;;;;;;;5038785;28;20055;-81
2023/01/25 06:03:55;;;;;;;57.47;32.97;;;;;;;;;;5038683;28;20085;-81
2023/01/25 06:06:23;;;;;;;21.70;11.50;;;;;;;;;;5039052;28;20096;-81
2023/01/25 06:08:50;;;;;;;16.85;9.88;;;;;;;;;;5038656;28;20473;-81
2023/01/25 06:11:19;;;;;;;21.92;12.57;;;;;;;;;;5054759;28;20050;-80
2023/01/25 06:13:47;;;;;;;22.15;12.57;;;;;;;;;;5051738;28;20049;-81
2023/01/25 06:16:15;;;;;;;13.55;7.93;;;;;;;;;;5048396;28;20144;-81
2023/01/25 06:18:43;;;;;;;15.05;8.45;;;;;;;;;;5058693;28;20098;-81
2023/01/25 06:21:10;;;;;;;17.63;9.70;;;;;;;;;;5061066;28;20049;-81
2023/01/25 06:23:37;;;;;;;16.92;10.27;;;;;;;;;;5057222;28;20049;-81
2023/01/25 06:26:09;;;;;;;16.70;10.13;;;;;;;;;;5043997;28;20522;-81
2023/01/25 06:28:37;;;;;;;16.52;10.07;;;;;;;;;;5044130;28;20076;-81
2023/01/25 06:31:15;;;;;;;16.58;9.98;;;;;;;;;;5042842;28;20045;-81
2023/01/25 06:33:43;;;;;;;17.02;9.57;;;;;;;;;;5044177;28;20049;-81
2023/01/25 06:36:12;;;;;;;173.60;78.95;;;;;;;;;;5044753;28;20137;-81
2023/01/25 06:38:40;;;;;;;140.77;59.05;;;;;;;;;;5044656;28;20065;-81
2023/01/25 06:41:12;;;;;;;157.73;68.35;;;;;;;;;;5046146;28;20080;-82
2023/01/25 06:43:41;;;;;;;45.67;22.95;;;;;;;;;;5044533;28;20475;-81
2023/01/25 06:46:10;;;;;;;23.35;12.75;;;;;;;;;;5044241;28;20109;-81
2023/01/25 06:48:38;;;;;;;18.83;9.20;;;;;;;;;;5044732;28;20069;-81
2023/01/25 06:51:07;;;;;;;51.58;23.17;;;;;;;;;;5043595;28;20060;-81
2023/01/25 06:53:36;;;;;;;33.78;15.55;;;;;;;;;;5044029;28;20061;-81
2023/01/25 06:56:04;;;;;;;17.30;10.20;;;;;;;;;;5046610;28;20060;-82
2023/01/25 06:58:32;;;;;;;20.23;11.07;;;;;;;;;;5047453;28;20132;-81
2023/01/25 07:01:02;;;;;;;19.33;10.65;;;;;;;;;;5046237;28;20140;-81
2023/01/25 07:03:30;;;;;;;22.35;10.65;;;;;;;;;;5046787;28;20089;-81
2023/01/25 07:06:01;;;;;;;17.67;10.02;;;;;;;;;;5046762;28;20072;-81
2023/01/25 07:08:30;;;;;;;15.38;9.15;;;;;;;;;;5046725;28;20499;-80
2023/01/25 07:11:01;;;;;;;17.63;10.73;;;;;;;;;;5044986;28;20085;-81
2023/01/25 07:13:33;;;;;;;18.58;9.25;;;;;;;;;;5045423;28;20137;-81
2023/01/25 07:16:02;;;;;;;18.75;9.90;;;;;;;;;;5046489;28;20054;-81
2023/01/25 07:18:30;;;;;;;16.42;8.60;;;;;;;;;;5045981;28;20059;-81
2023/01/25 07:21:09;;;;;;;21.48;13.13;;;;;;;;;;5045293;28;20049;-81
2023/01/25 07:23:50;;;;;;;21.30;13.02;;;;;;;;;;5045733;28;20057;-81
2023/01/25 07:26:18;;;;;;;17.70;10.90;;;;;;;;;;5043672;28;20049;-81
2023/01/25 07:28:47;;;;;;;18.90;8.85;;;;;;;;;;5044884;28;20499;-81
2023/01/25 07:31:15;;;;;;;15.40;9.07;;;;;;;;;;5045606;28;20075;-81
2023/01/25 07:33:42;;;;;;;17.75;10.60;;;;;;;;;;5045384;28;20056;-81
2023/01/25 07:36:11;;;;;;;18.00;8.95;;;;;;;;;;5044868;28;20053;-80
2023/01/25 07:38:39;;;;;;;16.58;8.85;;;;;;;;;;5044103;28;20049;-81
2023/01/25 07:41:06;;;;;;;20.55;10.23;;;;;;;;;;5044331;28;20053;-81
2023/01/25 07:43:34;;;;;;;17.35;8.95;;;;;;;;;;5043847;28;20113;-81
2023/01/25 07:46:06;;;;;;;29.48;9.10;;;;;;;;;;5043792;28;20049;-81
2023/01/25 07:48:34;;;;;;;16.05;8.63;;;;;;;;;;5044250;28;20480;-80
2023/01/25 07:51:10;;;;;;;14.38;8.70;;;;;;;;;;5043473;28;20113;-81
2023/01/25 07:53:42;;;;;;;13.60;7.95;;;;;;;;;;5043994;28;20073;-79
2023/01/25 07:56:12;;;;;;;15.10;8.30;;;;;;;;;;5044701;28;20136;-81
2023/01/25 07:58:40;;;;;;;13.45;8.15;;;;;;;;;;5043857;28;20045;-81
2023/01/25 08:01:12;;;;;;;13.32;8.50;;;;;;;;;;5043140;28;20057;-81
2023/01/25 08:03:42;;;;;;;16.52;8.27;;;;;;;;;;5042852;28;20401;-81
2023/01/25 08:06:10;;;;;;;14.15;8.13;;;;;;;;;;5044744;28;20095;-80
2023/01/25 08:08:43;;;;;;;12.85;9.05;;;;;;;;;;5043333;28;20045;-81
2023/01/25 08:11:14;;;;;;;15.57;8.68;;;;;;;;;;5043275;28;20094;-81
2023/01/25 08:13:45;;;;;;;29.08;15.32;;;;;;;;;;5043692;28;20049;-81
2023/01/25 08:16:14;;;;;;;59.42;26.58;;;;;;;;;;5042784;28;20073;-81
2023/01/25 08:18:41;;;;;;;16.15;10.32;;;;;;;;;;5044488;28;20060;-81
2023/01/25 08:21:10;;;;;;;17.77;9.52;;;;;;;;;;5042681;28;20136;-81
2023/01/25 08:23:37;;;;;;;13.68;8.23;;;;;;;;;;5041417;28;20052;-81
2023/01/25 08:26:05;;;;;;;14.35;8.20;;;;;;;;;;5044572;28;20053;-81
2023/01/25 08:28:34;;;;;;;12.52;7.47;;;;;;;;;;5044266;28;20132;-81
2023/01/25 08:31:07;;;;;;;14.48;8.23;;;;;;;;;;5044391;28;20054;-80
2023/01/25 08:33:35;;;;;;;11.98;7.38;;;;;;;;;;5043753;28;20046;-81
2023/01/25 08:36:03;;;;;;;12.50;7.28;;;;;;;;;;5043697;28;20053;-81
2023/01/25 08:38:33;;;;;;;10.23;6.90;;;;;;;;;;5042257;28;20479;-81
2023/01/25 08:41:06;;;;;;;12.40;7.53;;;;;;;;;;5042349;28;20077;-81
2023/01/25 08:43:33;;;;;;;11.18;7.05;;;;;;;;;;5042406;28;20060;-81
2023/01/25 08:46:03;;;;;;;13.57;8.50;;;;;;;;;;5042176;28;20132;-81
2023/01/25 08:48:31;;;;;;;15.88;9.10;;;;;;;;;;5042619;28;20136;-81
2023/01/25 08:50:59;;;;;;;12.68;8.27;;;;;;;;;;5042646;28;20084;-81
2023/01/25 08:53:30;;;;;;;10.73;7.28;;;;;;;;;;5068390;22;20605;-80
2023/01/25 08:56:02;;;;;;;15.15;9.43;;;;;;;;;;5063556;28;20076;-80
2023/01/25 08:58:30;;;;;;;13.52;8.75;;;;;;;;;;5061621;28;20477;-79
2023/01/25 09:01:02;;;;;;;17.75;11.23;;;;;;;;;;5060656;28;20049;-80
2023/01/25 09:03:29;;;;;;;18.48;9.93;;;;;;;;;;5059052;28;20087;-80
2023/01/25 09:05:56;;;;;;;13.75;8.35;;;;;;;;;;5061248;28;20521;-80
2023/01/25 09:08:24;;;;;;;11.75;6.88;;;;;;;;;;5061099;28;20045;-80
2023/01/25 09:10:51;;;;;;;12.73;7.90;;;;;;;;;;5059606;28;20388;-80
2023/01/25 09:13:18;;;;;;;13.18;8.88;;;;;;;;;;5059627;28;20087;-80
2023/01/25 09:15:45;;;;;;;10.73;7.13;;;;;;;;;;5061134;28;20068;-80
2023/01/25 09:18:13;;;;;;;10.18;6.85;;;;;;;;;;5061587;28;20072;-80
2023/01/25 09:20:40;;;;;;;12.30;7.60;;;;;;;;;;5059695;28;20470;-80
2023/01/25 09:23:07;;;;;;;11.75;7.05;;;;;;;;;;5060076;28;20084;-80
2023/01/25 09:25:35;;;;;;;11.10;6.78;;;;;;;;;;5062082;28;20041;-80
2023/01/25 09:28:10;;;;;;;9.30;6.25;;;;;;;;;;5060953;28;20041;-81
2023/01/25 09:30:38;;;;;;;9.52;5.70;;;;;;;;;;5061805;28;20073;-80
2023/01/25 09:33:15;;;;;;;12.93;6.45;;;;;;;;;;5062140;28;20415;-81
2023/01/25 09:35:46;;;;;;;8.35;6.10;;;;;;;;;;5064832;28;20053;-80
2023/01/25 09:38:14;;;;;;;8.98;6.60;;;;;;;;;;5066095;28;20068;-81
2023/01/25 09:40:44;;;;;;;10.82;6.90;;;;;;;;;;5066191;28;20113;-81
2023/01/25 09:43:37;;;;;;;9.45;6.43;;;;;;;;;;5066890;28;20076;-81
2023/01/25 09:46:24;;;;;;;10.63;9.10;;;;;;;;;;5063731;28;20069;-81
2023/01/25 09:49:01;;;;;;;8.38;6.30;;;;;;;;;;5049769;28;20067;-81
2023/01/25 09:51:37;;;;;;;10.43;6.90;;;;;;;;;;5066644;28;20112;-81
2023/01/25 09:54:04;;;;;;;8.27;5.95;;;;;;;;;;5065936;28;20143;-81
2023/01/25 09:56:35;;;;;;;8.60;5.97;;;;;;;;;;5065971;28;20059;-81
2023/01/25 09:59:05;;;;;;;7.38;5.60;;;;;;;;;;5067273;28;20563;-81
2023/01/25 10:01:39;;;;;;;8.98;5.95;;;;;;;;;;5068303;28;20048;-81
2023/01/25 10:04:06;;;;;;;8.05;6.05;;;;;;;;;;5067498;28;20056;-81
2023/01/25 10:06:38;;;;;;;10.75;7.05;;;;;;;;;;5066252;28;20072;-81
2023/01/25 10:09:21;;;;;;;10.93;6.45;;;;;;;;;;5066195;28;20112;-81
2023/01/25 10:11:48;;;;;;;9.07;6.60;;;;;;;;;;5069533;28;20045;-81
2023/01/25 10:14:16;;;;;;;10.88;6.40;;;;;;;;;;5059978;28;20053;-81
2023/01/25 10:16:50;;;;;;;11.05;6.57;;;;;;;;;;5056319;28;20140;-80
2023/01/25 10:19:17;;;;;;;11.98;6.60;;;;;;;;;;5056726;28;20059;-80
2023/01/25 10:21:47;;;;;;;10.82;7.40;;;;;;;;;;5056468;28;20055;-80
2023/01/25 10:24:33;;;;;;;8.77;6.45;;;;;;;;;;5056798;28;20131;-81
2023/01/25 10:27:18;;;;;;;9.38;7.07;;;;;;;;;;5057766;28;20073;-81
2023/01/25 10:29:46;;;;;;;9.15;5.85;;;;;;;;;;5057609;28;20076;-80
2023/01/25 10:32:25;;;;;;;10.05;7.30;;;;;;;;;;5056679;28;20553;-80
2023/01/25 10:34:55;;;;;;;10.27;7.40;;;;;;;;;;5056588;28;20084;-81
2023/01/25 10:37:28;;;;;;;9.00;6.07;;;;;;;;;;5057591;28;20183;-81
2023/01/25 10:39:55;;;;;;;11.13;7.13;;;;;;;;;;5057141;28;20091;-80
2023/01/25 10:42:25;;;;;;;8.68;5.93;;;;;;;;;;5058098;28;20199;-80
2023/01/25 10:44:52;;;;;;;8.68;5.93;;;;;;;;;;5056487;28;20051;-81
2023/01/25 10:47:27;;;;;;;8.82;5.93;;;;;;;;;;5056522;28;20499;-81
2023/01/25 10:49:55;;;;;;;11.63;6.93;;;;;;;;;;5057589;28;20048;-81
2023/01/25 10:52:34;;;;;;;9.43;6.20;;;;;;;;;;5056960;28;20132;-80
2023/01/25 10:55:16;;;;;;;10.25;6.85;;;;;;;;;;5058161;28;20053;-81
2023/01/25 10:57:44;;;;;;;9.30;6.35;;;;;;;;;;5057422;28;20053;-81
2023/01/25 11:00:20;;;;;;;9.40;6.57;;;;;;;;;;5056478;28;20143;-80
2023/01/25 11:02:47;;;;;;;15.35;7.38;;;;;;;;;;5056512;28;20116;-80
2023/01/25 11:05:23;;;;;;;11.93;7.50;;;;;;;;;;5056383;28;20045;-80
2023/01/25 11:07:51;;;;;;;13.48;8.02;;;;;;;;;;5057682;28;20053;-81
2023/01/25 11:10:28;;;;;;;12.32;7.82;;;;;;;;;;5058353;28;20076;-81
2023/01/25 11:13:14;;;;;;;9.85;6.68;;;;;;;;;;5057025;28;20045;-82
2023/01/25 11:15:44;;;;;;;13.55;7.32;;;;;;;;;;5056407;28;20461;-80
2023/01/25 11:18:13;;;;;;;15.80;8.50;;;;;;;;;;5064881;28;20045;-79
2023/01/25 11:20:40;;;;;;;13.25;8.07;;;;;;;;;;5076471;28;20048;-81
2023/01/25 11:23:23;;;;;;;15.82;8.25;;;;;;;;;;5071679;28;20594;-82
2023/01/25 11:25:51;;;;;;;10.90;8.10;;;;;;;;;;5065375;28;20049;-82
2023/01/25 11:28:20;;;;;;;12.57;7.57;;;;;;;;;;5064934;28;20068;-81
2023/01/25 11:30:48;;;;;;;12.80;7.50;;;;;;;;;;5063716;28;20054;-82
2023/01/25 11:33:17;;;;;;;10.55;6.97;;;;;;;;;;5063285;28;20056;-81
2023/01/25 11:36:23;;;;;;;10.50;7.10;;;;;;;;;;5064042;28;20056;-82
2023/01/25 11:39:07;;;;;;;14.10;7.90;;;;;;;;;;4981283;28;20113;-82
2023/01/25 11:41:52;;;;;;;13.40;7.57;;;;;;;;;;4966489;28;20061;-82
2023/01/25 11:44:35;;;;;;;13.48;7.78;;;;;;;;;;5021019;28;20105;-82
2023/01/25 11:47:11;;;;;;;12.80;8.07;;;;;;;;;;5041288;28;20128;-82
2023/01/25 11:50:08;;;;;;;12.07;7.68;;;;;;;;;;5042047;28;20079;-81
2023/01/25 11:53:08;;;;;;;13.85;7.80;;;;;;;;;;5006823;28;20046;-82
2023/01/25 11:55:40;;;;;;;12.20;7.65;;;;;;;;;;5019266;28;20055;-80
2023/01/25 11:58:15;;;;;;;15.32;8.57;;;;;;;;;;5032348;28;20056;-80
2023/01/25 12:01:15;;;;;;;19.60;10.43;;;;;;;;;;5034564;28;20137;-80
2023/01/25 12:03:42;;;;;;;18.73;11.55;;;;;;;;;;5027675;28;20053;-80
2023/01/25 12:06:20;;;;;;;22.38;12.50;;;;;;;;;;5034717;28;20049;-81
2023/01/25 12:08:50;;;;;;;19.23;8.88;;;;;;;;;;5034237;28;20056;-81
2023/01/25 12:11:32;;;;;;;20.02;9.52;;;;;;;;;;5033203;28;20052;-80
2023/01/25 12:14:18;;;;;;;15.82;8.98;;;;;;;;;;5033923;28;20049;-80
2023/01/25 12:16:51;;;;;;;17.20;8.98;;;;;;;;;;5033464;28;20091;-81
2023/01/25 12:19:22;;;;;;;15.75;9.55;;;;;;;;;;5034155;28;20136;-81
2023/01/25 12:22:04;;;;;;;15.27;8.70;;;;;;;;;;5034598;28;20056;-80
2023/01/25 12:24:48;;;;;;;14.43;9.07;;;;;;;;;;5033967;28;20045;-81
2023/01/25 12:27:38;;;;;;;13.45;8.32;;;;;;;;;;5033566;28;20045;-80
2023/01/25 12:30:26;;;;;;;13.07;8.15;;;;;;;;;;5030367;28;20137;-81
2023/01/25 12:32:57;;;;;;;15.02;8.05;;;;;;;;;;5033121;28;20080;-81
2023/01/25 12:35:41;;;;;;;13.38;7.80;;;;;;;;;;5034951;28;20095;-82
2023/01/25 12:38:27;;;;;;;10.52;7.50;;;;;;;;;;5035553;28;20422;-81
2023/01/25 12:40:56;;;;;;;15.43;7.78;;;;;;;;;;5038210;28;20048;-81
2023/01/25 12:43:26;;;;;;;12.50;7.90;;;;;;;;;;5036815;28;20522;-80
2023/01/25 12:45:54;;;;;;;13.77;8.23;;;;;;;;;;5036035;28;20049;-82
2023/01/25 12:48:27;;;;;;;13.77;8.43;;;;;;;;;;5036579;28;20072;-82
2023/01/25 12:50:56;;;;;;;14.18;7.97;;;;;;;;;;5036889;28;20046;-81
2023/01/25 12:53:23;;;;;;;13.52;8.38;;;;;;;;;;5035425;28;20057;-81
2023/01/25 12:55:51;;;;;;;12.63;7.75;;;;;;;;;;5038001;28;20128;-81
2023/01/25 12:58:24;;;;;;;13.07;7.70;;;;;;;;;;5038158;28;20538;-81
2023/01/25 13:01:23;;;;;;;12.15;8.18;;;;;;;;;;5038145;28;20073;-81
2023/01/25 13:03:50;;;;;;;15.00;9.10;;;;;;;;;;5035063;28;20050;-80
2023/01/25 13:06:35;;;;;;;18.73;8.55;;;;;;;;;;5036996;28;20557;-81
2023/01/25 13:09:05;;;;;;;14.45;8.55;;;;;;;;;;5035313;28;20124;-80
2023/01/25 13:11:45;;;;;;;14.35;8.95;;;;;;;;;;5036437;28;20045;-81
2023/01/25 13:14:19;;;;;;;17.55;8.63;;;;;;;;;;5037269;28;20053;-80
2023/01/25 13:16:47;;;;;;;;;;;;;;;;;;5037109;28;20077;-81
2023/01/25 13:19:30;;;;;;;16.00;9.30;;;;;;;;;;5039068;28;19921;-81
2023/01/25 13:21:59;;;;;;;19.52;8.93;;;;;;;;;;5043495;28;20050;-81
2023/01/25 13:24:28;;;;;;;13.43;8.40;;;;;;;;;;5043977;28;20069;-81
2023/01/25 13:26:55;;;;;;;17.33;10.65;;;;;;;;;;5044038;28;20099;-81
2023/01/25 13:29:35;;;;;;;12.95;8.35;;;;;;;;;;5043019;28;20083;-81
2023/01/25 13:32:03;;;;;;;31.98;15.88;;;;;;;;;;5041654;28;20045;-81
2023/01/25 13:34:37;;;;;;;22.25;12.65;;;;;;;;;;5041798;28;20140;-81
2023/01/25 13:37:18;;;;;;;26.08;14.43;;;;;;;;;;5036672;28;20111;-79
2023/01/25 13:39:47;;;;;;;20.42;10.98;;;;;;;;;;5038423;28;20057;-81
2023/01/25 13:42:20;;;;;;;15.02;9.15;;;;;;;;;;5036135;28;20064;-81
2023/01/25 13:44:49;;;;;;;16.10;9.73;;;;;;;;;;5035892;28;20049;-80
2023/01/25 13:47:20;;;;;;;17.55;9.45;;;;;;;;;;5038357;28;20045;-81
2023/01/25 13:49:57;;;;;;;14.35;8.40;;;;;;;;;;5036745;28;20052;-80
2023/01/25 13:52:25;;;;;;;16.92;9.30;;;;;;;;;;5037127;28;20084;-80
2023/01/25 13:54:56;;;;;;;34.15;14.23;;;;;;;;;;5037846;28;20119;-81
2023/01/25 13:57:24;;;;;;;26.13;11.02;;;;;;;;;;5034169;28;20488;-81
2023/01/25 13:59:59;;;;;;;35.63;11.95;;;;;;;;;;5043769;28;20506;-79
2023/01/25 14:02:37;;;;;;;22.77;11.45;;;;;;;;;;5044934;28;20084;-81
2023/01/25 14:05:05;;;;;;;17.00;10.10;;;;;;;;;;5044084;28;20045;-80
2023/01/25 14:07:35;;;;;;;17.73;9.07;;;;;;;;;;5042894;28;20049;-81
2023/01/25 14:10:10;;;;;;;23.55;11.52;;;;;;;;;;5044082;28;20076;-81
2023/01/25 14:12:39;;;;;;;18.75;8.80;;;;;;;;;;5038705;28;20119;-81
2023/01/25 14:15:16;;;;;;;21.35;10.55;;;;;;;;;;5035988;28;20297;-81
2023/01/25 14:17:43;;;;;;;22.92;10.50;;;;;;;;;;5046218;28;20084;-81
2023/01/25 14:20:18;;;;;;;17.05;10.05;;;;;;;;;;5044633;28;20057;-81
2023/01/25 14:22:49;;;;;;;16.67;9.57;;;;;;;;;;5046556;28;20069;-80
2023/01/25 14:25:17;;;;;;;15.98;9.63;;;;;;;;;;5051058;28;20132;-80
2023/01/25 14:27:44;;;;;;;18.30;9.55;;;;;;;;;;5055007;28;20052;-81
2023/01/25 14:30:27;;;;;;;16.13;10.10;;;;;;;;;;5048626;28;20053;-81
2023/01/25 14:32:55;;;;;;;;;;;;;;;;;;5050093;28;20052;-81
2023/01/25 14:35:39;;;;;;;19.27;12.35;;;;;;;;;;5047887;28;19992;-81
2023/01/25 14:38:21;;;;;;;15.68;8.85;;;;;;;;;;5047309;28;20057;-81
2023/01/25 14:40:49;;;;;;;13.68;8.27;;;;;;;;;;5045608;28;20073;-81
2023/01/25 14:43:17;;;;;;;14.35;8.75;;;;;;;;;;5047317;28;20060;-81
2023/01/25 14:45:44;;;;;;;11.88;8.88;;;;;;;;;;5048788;28;20048;-81
2023/01/25 14:48:30;;;;;;;39.97;15.18;;;;;;;;;;5046954;28;20241;-81